Time;durP1;ratioP1;P1;durP2;ratioP2;P2;SDS_P1;SDS_P2;PMS_P1;PMS_P2;Temp;Humidity;BMP_temperature;BMP_pressure;BME280_temperature;BME280_humidity;BME280_pressure;Samples;Min_cycle;Max_cycle;Signal;HPM_P1;HPM_P2
2022/07/23 00:01:58;;;;;;;;;30.00;25.75;;;;;22.44;66.91;101424.53;5078284;27;45299;-55
2022/07/23 00:04:23;;;;;;;;;27.25;27.25;;;;;22.44;67.01;101430.78;5077760;27;45418;-55
2022/07/23 00:06:48;;;;;;;;;29.00;24.00;;;;;22.46;67.06;101420.56;5078048;28;45452;-60
2022/07/23 00:09:14;;;;;;;;;30.75;26.00;;;;;22.47;66.57;101418.69;5078111;27;45240;-57
2022/07/23 00:11:39;;;;;;;;;26.00;26.00;;;;;22.51;66.22;101423.50;5078140;27;45361;-57
2022/07/23 00:14:04;;;;;;;;;26.50;23.00;;;;;22.51;66.38;101415.34;5078297;27;46229;-56
2022/07/23 00:16:30;;;;;;;;;30.00;26.25;;;;;22.53;66.26;101421.38;5078242;27;45303;-57
2022/07/23 00:18:55;;;;;;;;;31.50;27.00;;;;;22.53;65.91;101429.53;5078030;27;45252;-57
2022/07/23 00:21:21;;;;;;;;;25.50;23.50;;;;;22.56;65.70;101429.09;5078118;27;45246;-57
2022/07/23 00:23:46;;;;;;;;;30.50;25.25;;;;;22.57;65.54;101427.22;5077713;27;45951;-55
2022/07/23 00:26:12;;;;;;;;;34.33;28.33;;;;;22.55;65.41;101427.44;5077776;27;45420;-55
2022/07/23 00:28:37;;;;;;;;;29.00;23.50;;;;;22.53;65.41;101420.56;5077690;27;45318;-57
2022/07/23 00:31:03;;;;;;;;;29.75;23.75;;;;;22.58;65.10;101428.88;5077919;27;45294;-55
2022/07/23 00:33:28;;;;;;;;;22.50;19.50;;;;;22.57;65.32;101422.63;5076699;28;46606;-55
2022/07/23 00:35:53;;;;;;;;;30.00;26.75;;;;;22.57;65.10;101419.94;5075973;27;45488;-55
2022/07/23 00:38:19;;;;;;;;;24.25;22.00;;;;;22.56;65.57;101414.72;5076233;27;45371;-55
2022/07/23 00:40:44;;;;;;;;;28.50;25.00;;;;;22.57;65.50;101419.09;5076432;27;45531;-56
2022/07/23 00:43:09;;;;;;;;;24.75;22.00;;;;;22.57;65.69;101405.53;5076029;28;46205;-56
2022/07/23 00:45:35;;;;;;;;;32.50;25.50;;;;;22.56;65.75;101412.00;5076122;28;45422;-55
2022/07/23 00:48:01;;;;;;;;;25.25;22.25;;;;;22.54;65.59;101414.09;5076164;28;45345;-55
2022/07/23 00:50:27;;;;;;;;;28.25;25.25;;;;;22.32;65.89;101386.34;5076117;27;45403;-54
2022/07/23 00:52:52;;;;;;;;;25.50;22.50;;;;;22.42;66.17;101403.88;5076097;27;45514;-55
2022/07/23 00:55:18;;;;;;;;;25.75;23.50;;;;;22.38;66.39;101402.63;5076101;27;45479;-57
2022/07/23 00:57:43;;;;;;;;;24.00;22.75;;;;;22.36;66.22;101406.59;5075843;27;45669;-57
2022/07/23 01:00:14;;;;;;;;;33.25;27.00;;;;;22.31;66.32;101407.22;5076012;28;45391;-55
2022/07/23 01:02:39;;;;;;;;;28.75;22.75;;;;;22.22;66.79;101403.03;5075728;28;45340;-54
2022/07/23 01:05:05;;;;;;;;;25.00;21.50;;;;;22.25;66.77;101418.03;5075805;27;45403;-55
2022/07/23 01:07:30;;;;;;;;;26.50;25.00;;;;;22.25;66.59;101409.91;5075780;27;45366;-54
2022/07/23 01:09:56;;;;;;;;;26.00;22.00;;;;;22.27;66.53;101413.25;5075134;28;45398;-56
2022/07/23 01:12:22;;;;;;;;;25.75;23.00;;;;;22.28;66.57;101407.63;5075796;27;45415;-56
2022/07/23 01:14:58;;;;;;;;;24.25;21.75;;;;;22.32;66.17;101406.16;5075570;27;45291;-55
2022/07/23 01:17:24;;;;;;;;;30.00;24.75;;;;;22.23;66.54;101391.16;5075996;27;45253;-55
2022/07/23 01:19:49;;;;;;;;;23.00;21.25;;;;;22.34;66.60;101404.09;5076265;28;45357;-54
2022/07/23 01:22:17;;;;;;;;;28.00;20.00;;;;;22.36;66.62;101407.41;5075805;28;45388;-55
2022/07/23 01:24:43;;;;;;;;;22.00;20.25;;;;;22.37;66.82;101403.66;5075826;27;45379;-56
2022/07/23 01:27:08;;;;;;;;;30.25;23.50;;;;;22.38;66.44;101408.06;5075918;27;45345;-56
2022/07/23 01:29:33;;;;;;;;;22.50;20.25;;;;;22.38;66.24;101410.78;5076057;27;45481;-53
2022/07/23 01:31:59;;;;;;;;;22.50;21.75;;;;;22.37;66.01;101403.66;5075906;27;45363;-56
2022/07/23 01:34:24;;;;;;;;;24.25;22.75;;;;;22.41;66.26;101404.06;5035702;27;1153252;-55
2022/07/23 01:36:49;;;;;;;;;24.50;21.50;;;;;22.42;66.26;101403.06;5077096;27;45363;-53
2022/07/23 01:39:15;;;;;;;;;23.00;21.00;;;;;22.42;66.56;101406.59;5077205;27;45370;-55
2022/07/23 01:41:40;;;;;;;;;19.25;18.25;;;;;22.39;66.24;101403.47;5076993;27;46134;-55
2022/07/23 01:44:06;;;;;;;;;28.50;21.50;;;;;22.43;66.25;101402.00;5075609;27;45466;-55
2022/07/23 01:46:31;;;;;;;;;23.00;20.50;;;;;22.42;66.13;101406.59;5076962;27;45829;-55
2022/07/23 01:48:57;;;;;;;;;24.75;22.00;;;;;22.34;66.29;101385.13;5077084;28;45389;-55
2022/07/23 01:51:22;;;;;;;;;22.00;20.50;;;;;22.38;66.33;101388.25;5076805;27;46405;-55
2022/07/23 01:53:47;;;;;;;;;28.25;27.75;;;;;22.40;67.07;101397.00;5092600;27;45335;-55
2022/07/23 01:56:14;;;;;;;;;28.50;26.25;;;;;22.47;66.96;101402.44;5076894;27;45320;-55
2022/07/23 01:58:40;;;;;;;;;29.75;25.00;;;;;22.48;67.23;101399.50;5076856;27;45251;-55
2022/07/23 02:01:05;;;;;;;;;29.75;25.50;;;;;22.45;67.60;101397.19;5076611;27;46895;-54
2022/07/23 02:03:31;;;;;;;;;25.50;22.00;;;;;22.47;67.63;101395.13;5076798;27;45389;-55
2022/07/23 02:05:56;;;;;;;;;32.00;30.00;;;;;22.49;67.89;101389.47;5076625;28;45896;-55
2022/07/23 02:08:21;;;;;;;;;30.75;28.25;;;;;22.51;67.85;101396.38;5077186;27;45363;-56
2022/07/23 02:10:48;;;;;;;;;30.67;27.67;;;;;22.46;67.97;101390.75;5076526;28;46469;-55
2022/07/23 02:13:13;;;;;;;;;36.50;30.50;;;;;22.49;67.82;101397.63;5076765;27;45463;-60
2022/07/23 02:15:39;;;;;;;;;35.67;31.00;;;;;22.50;68.38;101396.56;5075763;27;45260;-54
2022/07/23 02:18:04;;;;;;;;;32.00;28.00;;;;;22.48;67.96;101402.22;5076772;28;45243;-55
2022/07/23 02:20:30;;;;;;;;;31.00;29.33;;;;;22.41;68.31;101394.06;5076782;27;45872;-55
2022/07/23 02:22:55;;;;;;;;;35.33;30.00;;;;;22.32;67.95;101387.19;5079997;27;45308;-57
2022/07/23 02:25:20;;;;;;;;;37.33;31.00;;;;;22.41;68.23;101404.91;5080019;28;45377;-56
2022/07/23 02:27:46;;;;;;;;;33.67;27.00;;;;;22.41;68.43;101398.66;5080190;27;45453;-54
2022/07/23 02:30:12;;;;;;;;;35.67;30.33;;;;;22.38;68.65;101402.63;5079439;27;46089;-55
2022/07/23 02:32:39;;;;;;;;;32.67;30.00;;;;;22.39;68.15;101404.28;5079744;27;45300;-56
2022/07/23 02:35:05;;;;;;;;;34.00;31.00;;;;;22.39;68.57;101411.59;5079553;27;45526;-57
2022/07/23 02:37:31;;;;;;;;;32.75;29.50;;;;;22.38;68.60;101413.47;5079861;27;45286;-56
2022/07/23 02:39:56;;;;;;;;;32.00;31.00;;;;;22.37;68.53;101419.09;5079258;27;46190;-56
2022/07/23 02:42:23;;;;;;;;;33.67;30.67;;;;;22.35;68.80;101424.72;5079554;27;45252;-56
2022/07/23 02:44:49;;;;;;;;;32.00;30.33;;;;;22.34;68.98;101428.50;5079721;27;45226;-55
2022/07/23 02:47:14;;;;;;;;;31.00;28.67;;;;;22.33;68.78;101425.97;5079908;27;45469;-56
2022/07/23 02:49:40;;;;;;;;;38.00;32.33;;;;;22.27;69.22;101408.66;5079250;27;47032;-56
2022/07/23 02:52:05;;;;;;;;;39.00;31.33;;;;;22.33;68.74;101413.28;5079316;27;45376;-55
2022/07/23 02:54:30;;;;;;;;;40.67;30.00;;;;;22.33;69.10;101420.53;5079410;27;45558;-54
2022/07/23 02:56:56;;;;;;;;;33.33;31.33;;;;;22.31;69.11;101419.94;5079706;27;45503;-55
2022/07/23 02:59:21;;;;;;;;;36.00;30.00;;;;;22.30;68.60;101423.69;5079056;27;46241;-56
2022/07/23 03:01:46;;;;;;;;;36.00;30.00;;;;;22.21;68.73;101419.53;5079353;27;45370;-57
2022/07/23 03:04:12;;;;;;;;;35.00;29.67;;;;;22.21;68.59;101428.47;5061135;28;45774;-55
2022/07/23 03:06:37;;;;;;;;;32.33;29.67;;;;;22.22;68.91;101435.56;5079216;27;45289;-56
2022/07/23 03:09:03;;;;;;;;;33.33;29.00;;;;;22.18;68.61;101428.88;5079178;28;45335;-55
2022/07/23 03:11:29;;;;;;;;;32.67;30.00;;;;;22.05;68.55;101434.25;5078854;27;45404;-56
2022/07/23 03:13:55;;;;;;;;;31.33;26.33;;;;;22.07;68.55;101440.28;5079120;28;45312;-55
2022/07/23 03:16:20;;;;;;;;;25.50;23.25;;;;;22.00;68.75;101440.28;5079157;27;45251;-56
2022/07/23 03:18:46;;;;;;;;;30.50;24.50;;;;;21.97;68.72;101432.56;5078819;27;45456;-55
2022/07/23 03:21:11;;;;;;;;;33.33;26.67;;;;;21.99;68.68;101446.72;5078868;27;45304;-55
2022/07/23 03:23:36;;;;;;;;;33.25;25.50;;;;;21.98;68.70;101450.50;5079139;27;45259;-56
2022/07/23 03:26:02;;;;;;;;;23.50;21.00;;;;;21.99;68.15;101448.59;5079210;27;45321;-55
2022/07/23 03:28:27;;;;;;;;;26.00;24.50;;;;;21.99;68.27;101454.03;5079061;27;46122;-56
2022/07/23 03:30:53;;;;;;;;;29.33;26.33;;;;;21.96;68.56;101447.16;5078849;27;45171;-57
2022/07/23 03:33:20;;;;;;;;;27.50;25.25;;;;;21.91;68.34;101438.78;5078229;27;45462;-57
2022/07/23 03:35:47;;;;;;;;;27.50;23.00;;;;;21.98;68.21;101455.91;5078735;28;45454;-55
2022/07/23 03:38:13;;;;;;;;;28.67;26.67;;;;;21.98;68.27;101461.31;5078585;27;45434;-56
2022/07/23 03:40:38;;;;;;;;;30.50;23.25;;;;;21.86;68.48;101442.13;5078661;27;45408;-55
2022/07/23 03:43:04;;;;;;;;;28.33;23.00;;;;;21.96;68.57;101455.28;5078424;27;45453;-56
2022/07/23 03:45:29;;;;;;;;;33.00;29.33;;;;;21.98;68.65;101458.63;5078764;28;45238;-59
2022/07/23 03:47:55;;;;;;;;;28.50;24.75;;;;;21.98;68.85;101453.19;5078322;27;46256;-55
2022/07/23 03:50:20;;;;;;;;;29.75;25.75;;;;;21.98;68.57;101458.63;5078298;27;45434;-55
2022/07/23 03:52:46;;;;;;;;;28.50;24.00;;;;;21.99;68.83;101462.97;5078612;27;45266;-55
2022/07/23 03:55:11;;;;;;;;;31.50;29.75;;;;;21.99;69.17;101456.72;5078663;27;45356;-56
2022/07/23 03:57:37;;;;;;;;;28.75;25.25;;;;;21.96;68.95;101458.00;5078488;27;45281;-58
2022/07/23 04:00:05;;;;;;;;;30.00;28.67;;;;;21.91;69.16;101449.63;5078045;27;45232;-56
2022/07/23 04:02:31;;;;;;;;;31.00;24.67;;;;;21.97;68.86;101459.66;5078148;27;45357;-55
2022/07/23 04:04:57;;;;;;;;;26.00;22.00;;;;;21.98;69.29;101464.03;5078385;27;45414;-54
2022/07/23 04:07:22;;;;;;;;;28.50;23.75;;;;;21.98;68.65;101466.75;5077952;27;46935;-55
2022/07/23 04:09:48;;;;;;;;;29.33;25.33;;;;;21.90;68.74;101442.53;5078059;28;45454;-55
2022/07/23 04:12:13;;;;;;;;;29.00;26.25;;;;;21.96;68.17;101462.59;5078233;27;45315;-55
2022/07/23 04:14:39;;;;;;;;;22.75;21.00;;;;;21.89;68.53;101452.53;5076846;27;45460;-56
2022/07/23 04:17:04;;;;;;;;;26.00;24.25;;;;;21.98;68.42;101469.44;5077993;27;46061;-56
2022/07/23 04:19:30;;;;;;;;;21.75;20.50;;;;;21.99;68.02;101464.88;5078242;28;45364;-56
2022/07/23 04:21:56;;;;;;;;;29.50;26.25;;;;;21.96;67.94;101460.72;5078027;27;45242;-56
2022/07/23 04:24:21;;;;;;;;;17.00;15.25;;;;;21.98;67.68;101466.75;5078060;28;45329;-56
2022/07/23 04:26:46;;;;;;;;;22.25;19.25;;;;;21.97;67.54;101467.78;5077749;27;45812;-59
2022/07/23 04:29:12;;;;;;;;;24.75;22.00;;;;;22.01;67.55;101471.75;5077793;27;45468;-56
2022/07/23 04:31:37;;;;;;;;;22.75;20.50;;;;;22.03;67.36;101475.09;5077776;27;45200;-58
2022/07/23 04:34:02;;;;;;;;;23.50;21.50;;;;;22.05;67.61;101467.59;5076386;28;45503;-55
2022/07/23 04:36:28;;;;;;;;;23.50;23.00;;;;;22.05;67.41;101467.59;5077576;28;46102;-56
2022/07/23 04:38:53;;;;;;;;;24.75;21.00;;;;;22.08;67.10;101478.03;5077591;27;45328;-55
2022/07/23 04:41:19;;;;;;;;;22.50;20.25;;;;;22.10;67.18;101475.94;5077778;27;45389;-56
2022/07/23 04:43:44;;;;;;;;;21.50;19.75;;;;;22.10;67.21;101475.94;5077377;27;45557;-57
2022/07/23 04:46:10;;;;;;;;;25.25;21.75;;;;;22.12;66.99;101476.63;5077284;28;45864;-55
2022/07/23 04:48:36;;;;;;;;;25.75;22.00;;;;;22.02;66.68;101456.34;5077498;27;45408;-56
2022/07/23 04:51:01;;;;;;;;;20.00;19.00;;;;;22.14;66.68;101479.94;5077554;28;45304;-56
2022/07/23 04:53:26;;;;;;;;;18.25;16.00;;;;;22.16;66.63;101483.31;5077490;27;45465;-56
2022/07/23 04:55:52;;;;;;;;;23.75;18.50;;;;;22.19;66.40;101481.22;5077251;28;47067;-58
2022/07/23 04:58:17;;;;;;;;;23.00;19.75;;;;;22.21;65.91;101487.28;5077384;27;45426;-57
2022/07/23 05:00:42;;;;;;;;;21.50;19.50;;;;;22.19;65.77;101481.22;5077522;27;45294;-55
2022/07/23 05:03:08;;;;;;;;;20.75;18.50;;;;;22.25;65.95;101480.38;5077499;27;45256;-57
2022/07/23 05:05:33;;;;;;;;;22.00;20.00;;;;;22.26;65.37;101477.47;5077223;27;46323;-57
2022/07/23 05:07:58;;;;;;;;;24.00;18.50;;;;;22.29;65.31;101482.50;5077146;27;45450;-54
2022/07/23 05:10:24;;;;;;;;;21.75;18.00;;;;;22.30;65.59;101483.31;5077274;27;45415;-55
2022/07/23 05:12:49;;;;;;;;;21.25;18.00;;;;;22.33;65.32;101482.88;5076179;27;45369;-55
2022/07/23 05:15:14;;;;;;;;;18.25;18.00;;;;;22.38;64.89;101483.97;5076942;27;45474;-54
2022/07/23 05:17:40;;;;;;;;;24.25;21.25;;;;;22.47;64.84;101487.31;5077085;27;45442;-57
2022/07/23 05:20:06;;;;;;;;;22.00;17.25;;;;;22.53;64.38;101486.47;5077221;27;45630;-55
2022/07/23 05:22:31;;;;;;;;;20.50;18.00;;;;;22.47;64.41;101467.50;5077269;28;45601;-57
2022/07/23 05:24:57;;;;;;;;;22.75;19.00;;;;;22.62;63.96;101482.50;5076754;27;46213;-55
2022/07/23 05:27:22;;;;;;;;;20.25;18.25;;;;;22.66;63.68;101486.47;5076943;28;45179;-57
2022/07/23 05:29:47;;;;;;;;;18.50;18.50;;;;;22.62;63.31;101474.34;5076880;27;45365;-57
2022/07/23 05:32:13;;;;;;;;;21.25;19.50;;;;;22.61;63.22;101466.44;5077127;27;45457;-56
2022/07/23 05:34:38;;;;;;;;;17.50;17.25;;;;;22.71;62.46;101482.28;5075507;28;47194;-56
2022/07/23 05:37:03;;;;;;;;;21.25;18.75;;;;;22.69;62.42;101490.66;5076934;27;45174;-55
2022/07/23 05:39:29;;;;;;;;;23.75;17.00;;;;;22.70;62.62;101489.59;5077097;27;45745;-54
2022/07/23 05:41:54;;;;;;;;;24.00;18.50;;;;;22.74;62.28;101487.31;5077469;27;45394;-56
2022/07/23 05:44:20;;;;;;;;;18.50;18.25;;;;;22.77;62.22;101482.31;5077384;27;45517;-54
2022/07/23 05:46:46;;;;;;;;;16.25;15.25;;;;;22.75;62.33;101472.69;5077435;28;45475;-54
2022/07/23 05:49:11;;;;;;;;;23.00;19.25;;;;;22.85;61.86;101487.50;5077228;27;45375;-57
2022/07/23 05:51:36;;;;;;;;;21.25;17.50;;;;;22.88;61.72;101497.97;5077181;27;45482;-54
2022/07/23 05:54:02;;;;;;;;;25.00;19.25;;;;;22.87;61.32;101490.00;5076842;27;46186;-53
2022/07/23 05:56:27;;;;;;;;;21.75;18.25;;;;;22.86;61.57;101497.31;5078041;27;45342;-57
2022/07/23 05:58:52;;;;;;;;;19.75;17.25;;;;;22.85;61.87;101503.78;5080330;27;45399;-54
2022/07/23 06:01:18;;;;;;;;;21.50;19.50;;;;;22.83;62.07;101507.75;5080235;27;45411;-57
2022/07/23 06:03:43;;;;;;;;;24.75;19.25;;;;;22.79;61.82;101503.78;5079936;27;45490;-54
2022/07/23 06:06:09;;;;;;;;;20.00;18.00;;;;;22.80;62.09;101508.19;5080014;27;45417;-55
2022/07/23 06:08:34;;;;;;;;;28.00;21.25;;;;;22.80;62.45;101508.19;5080067;27;45467;-54
2022/07/23 06:10:59;;;;;;;;;28.75;21.75;;;;;22.73;62.30;101505.47;5080493;28;45324;-58
2022/07/23 06:13:25;;;;;;;;;27.75;23.75;;;;;22.79;62.32;101518.19;5079858;27;46323;-54
2022/07/23 06:15:50;;;;;;;;;32.25;25.50;;;;;22.83;62.51;101510.47;5079876;28;45516;-55
2022/07/23 06:18:16;;;;;;;;;27.25;23.25;;;;;22.86;62.75;101515.47;5079909;27;45222;-54
2022/07/23 06:20:41;;;;;;;;;24.75;23.00;;;;;22.88;62.87;101519.66;5079959;27;45266;-55
2022/07/23 06:23:06;;;;;;;;;31.50;27.50;;;;;22.90;62.83;101514.88;5079878;27;46173;-56
2022/07/23 06:25:32;;;;;;;;;29.25;27.00;;;;;22.87;62.83;101517.13;5079682;27;45401;-56
2022/07/23 06:27:57;;;;;;;;;40.75;31.50;;;;;22.97;62.87;101517.59;5079969;27;45299;-55
2022/07/23 06:30:22;;;;;;;;;33.50;29.25;;;;;22.88;63.01;101507.94;5080050;27;45326;-58
2022/07/23 06:32:49;;;;;;;;;33.00;28.75;;;;;22.98;62.74;101521.16;5079324;27;46031;-56
2022/07/23 06:35:15;;;;;;;;;34.50;29.50;;;;;22.99;63.18;101537.19;5079582;27;45320;-55
2022/07/23 06:37:40;;;;;;;;;28.75;27.00;;;;;22.99;63.17;101534.50;5079508;27;45335;-54
2022/07/23 06:40:06;;;;;;;;;39.00;32.67;;;;;23.00;63.11;101532.59;5079729;27;45421;-55
2022/07/23 06:42:31;;;;;;;;;35.00;30.75;;;;;22.99;63.26;101531.78;5079281;27;45926;-55
2022/07/23 06:44:57;;;;;;;;;33.25;25.75;;;;;22.97;63.12;101531.16;5079225;27;45450;-56
2022/07/23 06:47:23;;;;;;;;;31.00;29.50;;;;;23.01;63.44;101545.97;5079651;27;45386;-56
2022/07/23 06:49:48;;;;;;;;;36.75;31.75;;;;;22.99;63.57;101542.63;5079584;28;45548;-57
2022/07/23 06:52:14;;;;;;;;;39.00;31.33;;;;;22.98;63.34;101546.41;5078991;27;46163;-56
2022/07/23 06:54:39;;;;;;;;;38.33;31.67;;;;;22.96;63.15;101537.63;5079212;28;45530;-54
2022/07/23 06:57:04;;;;;;;;;39.67;32.00;;;;;22.95;63.86;101540.53;5079342;27;45328;-55
2022/07/23 06:59:30;;;;;;;;;38.00;30.33;;;;;22.97;63.59;101543.91;5079307;27;45386;-56
2022/07/23 07:01:57;;;;;;;;;42.33;32.67;;;;;23.07;63.48;101538.88;5078875;27;45828;-55
2022/07/23 07:04:22;;;;;;;;;35.75;32.00;;;;;23.23;63.35;101541.16;5079204;27;45175;-55
2022/07/23 07:06:48;;;;;;;;;46.33;32.33;;;;;23.32;62.86;101548.03;5079178;27;45288;-57
2022/07/23 07:09:13;;;;;;;;;45.67;34.67;;;;;23.38;62.61;101547.16;5079246;27;45412;-57
2022/07/23 07:11:38;;;;;;;;;38.67;30.67;;;;;23.42;62.71;101550.31;5078938;27;45939;-55
2022/07/23 07:14:04;;;;;;;;;40.33;32.67;;;;;23.40;62.69;101555.94;5079073;27;45257;-57
2022/07/23 07:16:30;;;;;;;;;45.33;35.33;;;;;23.31;62.76;101549.09;5078989;27;45345;-59
2022/07/23 07:18:55;;;;;;;;;42.50;33.25;;;;;23.29;63.18;101561.19;5079158;28;45173;-56
2022/07/23 07:21:20;;;;;;;;;45.00;33.33;;;;;23.24;63.25;101571.84;5078741;27;46007;-57
2022/07/23 07:23:46;;;;;;;;;37.33;32.00;;;;;23.26;63.24;101572.47;5078857;27;45331;-56
2022/07/23 07:26:11;;;;;;;;;42.00;32.00;;;;;23.28;63.28;101565.78;5078878;27;45477;-56
2022/07/23 07:28:36;;;;;;;;;42.00;34.00;;;;;23.34;63.04;101574.97;5079923;27;45364;-55
2022/07/23 07:31:02;;;;;;;;;41.67;36.67;;;;;23.45;62.93;101579.75;5080459;28;45498;-56
2022/07/23 07:33:27;;;;;;;;;50.33;36.00;;;;;23.55;62.80;101580.13;5079110;28;45378;-55
2022/07/23 07:35:53;;;;;;;;;31.33;30.33;;;;;23.65;62.25;101575.16;5079205;28;45291;-55
2022/07/23 07:38:18;;;;;;;;;42.33;32.00;;;;;23.82;61.97;101585.56;5079626;28;45418;-56
2022/07/23 07:40:44;;;;;;;;;47.33;35.00;;;;;23.97;61.50;101575.25;5081208;27;46642;-56
2022/07/23 07:43:09;;;;;;;;;41.33;36.33;;;;;24.12;61.14;101577.69;5080584;27;45252;-56
2022/07/23 07:45:35;;;;;;;;;48.00;37.67;;;;;24.31;60.67;101575.91;5081647;27;45363;-61
2022/07/23 07:48:00;;;;;;;;;47.33;38.00;;;;;24.44;60.22;101585.91;5081748;27;45355;-57
2022/07/23 07:50:26;;;;;;;;;42.00;36.67;;;;;24.52;60.01;101589.22;5081344;27;45378;-55
2022/07/23 07:52:51;;;;;;;;;50.33;36.33;;;;;24.58;60.09;101584.81;5082141;27;45499;-55
2022/07/23 07:55:16;;;;;;;;;47.67;36.33;;;;;24.69;59.90;101588.69;5081783;27;45534;-55
2022/07/23 07:57:42;;;;;;;;;48.00;35.67;;;;;24.75;59.71;101587.84;5080100;27;45254;-55
2022/07/23 08:00:09;;;;;;;;;48.00;39.00;;;;;24.73;59.78;101587.19;5079126;27;46092;-55
2022/07/23 08:02:49;;;;;;;;;46.50;37.25;;;;;24.63;59.31;101577.66;5081606;27;45737;-54
2022/07/23 08:05:21;;;;;;;;;53.33;36.67;;;;;24.68;59.20;101592.47;5078238;27;45313;-60
2022/07/23 08:07:47;;;;;;;;;43.00;34.67;;;;;24.74;59.58;101595.16;5078380;28;45324;-60
2022/07/23 08:10:12;;;;;;;;;48.00;37.00;;;;;24.91;58.91;101590.03;5078016;27;47095;-59
2022/07/23 08:12:38;;;;;;;;;44.67;33.33;;;;;25.68;57.15;101592.47;5077984;27;45225;-56
2022/07/23 08:15:05;;;;;;;;;42.00;33.75;;;;;27.13;53.67;101589.69;5078455;27;45466;-60
2022/07/23 08:17:30;;;;;;;;;51.25;37.00;;;;;27.34;52.65;101585.53;5077934;27;45360;-56
2022/07/23 08:19:56;;;;;;;;;39.25;33.00;;;;;27.41;51.78;101588.16;5077205;28;46873;-54
2022/07/23 08:22:21;;;;;;;;;41.00;31.25;;;;;27.41;52.17;101596.34;5077850;27;45314;-57
2022/07/23 08:24:46;;;;;;;;;44.50;35.75;;;;;27.32;51.89;101582.22;5077881;27;45418;-55
2022/07/23 08:27:12;;;;;;;;;40.75;33.50;;;;;27.44;52.01;101604.91;5078490;28;45296;-57
2022/07/23 08:29:37;;;;;;;;;41.00;32.25;;;;;28.30;50.36;101599.63;5077806;28;45973;-59
2022/07/23 08:32:02;;;;;;;;;45.25;34.50;;;;;28.49;48.91;101600.31;5077626;27;45360;-56
2022/07/23 08:34:28;;;;;;;;;43.50;33.25;;;;;28.38;48.90;101603.94;5077654;27;45381;-55
2022/07/23 08:36:53;;;;;;;;;37.75;31.00;;;;;28.26;49.29;101612.16;5078121;27;45364;-55
2022/07/23 08:39:18;;;;;;;;;40.25;33.25;;;;;29.47;47.35;101596.22;5077578;28;45994;-55
2022/07/23 08:41:44;;;;;;;;;36.50;32.00;;;;;30.03;45.42;101605.19;5077475;27;45229;-55
2022/07/23 08:44:09;;;;;;;;;43.00;32.75;;;;;31.14;44.60;101611.28;5077796;27;45717;-56
2022/07/23 08:46:36;;;;;;;;;38.50;31.75;;;;;31.97;42.15;101608.81;5077828;27;45422;-57
2022/07/23 08:49:01;;;;;;;;;36.80;30.40;;;;;31.29;42.67;101615.00;5077187;27;47518;-58
2022/07/23 08:51:28;;;;;;;;;42.00;31.50;;;;;31.26;42.72;101620.19;5077587;27;45233;-54
2022/07/23 08:53:56;;;;;;;;;38.00;33.60;;;;;31.29;42.99;101606.75;5077281;28;45477;-55
2022/07/23 08:56:22;;;;;;;;;33.50;30.50;;;;;30.96;43.30;101613.34;5077628;28;45688;-56
2022/07/23 08:58:47;;;;;;;;;35.75;30.50;;;;;31.12;43.79;101624.47;5077071;27;45236;-56
2022/07/23 09:01:14;;;;;;;;;39.00;32.50;;;;;30.48;44.19;101622.50;5077296;27;45369;-55
2022/07/23 09:03:39;;;;;;;;;42.80;33.60;;;;;29.95;45.43;101621.28;5077249;27;45361;-56
2022/07/23 09:06:05;;;;;;;;;38.75;30.00;;;;;29.84;45.72;101628.56;5077415;27;45300;-57
2022/07/23 09:08:33;;;;;;;;;35.75;28.75;;;;;31.10;43.12;101619.25;5077170;27;45286;-55
2022/07/23 09:11:00;;;;;;;;;39.20;31.80;;;;;31.20;42.65;101619.31;5077125;28;45345;-56
2022/07/23 09:13:38;;;;;;;;;38.80;32.60;;;;;30.92;43.47;101625.94;5075767;28;45316;-56
2022/07/23 09:16:13;;;;;;;;;42.40;31.60;;;;;30.67;43.15;101621.03;5077182;27;45389;-57
2022/07/23 09:18:43;;;;;;;;;37.60;30.00;;;;;30.55;43.44;101628.59;5075625;28;48320;-59
2022/07/23 09:21:10;;;;;;;;;38.60;32.00;;;;;30.94;43.30;101606.47;5076870;27;45426;-59
2022/07/23 09:23:41;;;;;;;;;31.40;28.40;;;;;33.28;41.46;101615.63;5077239;27;45328;-57
2022/07/23 09:26:38;;;;;;;;;34.80;27.40;;;;;33.94;38.43;101608.31;5077347;27;45370;-57
2022/07/23 09:29:12;;;;;;;;;39.20;30.00;;;;;33.62;38.61;101612.28;5077056;27;45409;-56
2022/07/23 09:32:13;;;;;;;;;30.80;28.60;;;;;34.10;37.21;101612.69;5078686;27;45366;-56
2022/07/23 09:34:38;;;;;;;;;30.40;28.40;;;;;33.54;37.06;101615.63;5057823;28;45399;-56
2022/07/23 09:37:16;;;;;;;;;35.25;30.50;;;;;33.27;38.74;101615.94;5058314;28;45499;-56
2022/07/23 09:39:43;;;;;;;;;32.60;28.00;;;;;34.47;36.96;101616.88;5057350;28;45456;-56
2022/07/23 09:42:20;;;;;;;;;37.20;30.00;;;;;36.16;34.36;101605.88;5057997;28;45467;-56
2022/07/23 09:44:57;;;;;;;;;40.80;32.00;;;;;35.91;34.05;101614.50;5057976;28;45437;-58
2022/07/23 09:47:24;;;;;;;;;30.80;29.20;;;;;37.76;31.33;101605.69;5058203;28;45602;-56
2022/07/23 09:50:08;;;;;;;;;29.60;25.40;;;;;39.77;29.32;101612.44;5057533;28;45446;-56
2022/07/23 09:52:35;;;;;;;;;29.60;28.20;;;;;41.15;27.75;101605.25;5057394;28;45390;-58
2022/07/23 09:55:04;;;;;;;;;34.00;28.40;;;;;41.97;25.29;101610.63;5057293;28;45393;-57
2022/07/23 09:57:31;;;;;;;;;35.20;29.00;;;;;43.03;26.68;101610.25;5057927;28;45510;-56
2022/07/23 09:59:59;;;;;;;;;25.00;23.80;;;;;43.89;23.91;101594.31;5057424;28;46212;-57
2022/07/23 10:02:27;;;;;;;;;29.00;28.00;;;;;44.72;22.06;101606.81;5057649;28;45583;-56
2022/07/23 10:04:54;;;;;;;;;33.20;30.00;;;;;45.40;21.45;101596.53;5057390;28;45456;-56
2022/07/23 10:07:23;;;;;;;;;28.00;25.80;;;;;46.08;23.93;101603.78;5057673;28;45561;-56
2022/07/23 10:09:52;;;;;;;;;28.00;26.60;;;;;46.33;19.99;101605.13;5057934;28;45304;-55
2022/07/23 10:12:30;;;;;;;;;30.20;27.20;;;;;46.44;19.40;101599.72;5079683;27;45482;-56
2022/07/23 10:14:57;;;;;;;;;32.40;30.00;;;;;47.10;20.05;101604.22;5079883;27;45423;-56
2022/07/23 10:17:23;;;;;;;;;32.60;23.60;;;;;47.56;20.31;101595.72;5080298;27;45394;-56
2022/07/23 10:19:48;;;;;;;;;30.00;26.25;;;;;47.95;19.53;101601.94;5079588;27;45428;-57
2022/07/23 10:22:24;;;;;;;;;27.50;24.25;;;;;48.14;19.37;101603.03;5079983;27;45342;-58
2022/07/23 10:25:08;;;;;;;;;24.60;23.60;;;;;47.70;19.39;101592.31;5079854;27;45371;-56
2022/07/23 10:28:10;;;;;;;;;29.00;21.40;;;;;46.84;21.30;101601.31;5080307;27;45157;-57
2022/07/23 10:31:05;;;;;;;;;33.80;28.60;;;;;47.29;20.03;101602.53;5079612;27;47204;-56
2022/07/23 10:33:56;;;;;;;;;29.00;24.00;;;;;47.65;19.85;101596.25;5079292;28;45456;-55
2022/07/23 10:36:31;;;;;;;;;27.20;24.00;;;;;47.56;18.29;101601.34;5079664;27;45355;-56
2022/07/23 10:39:22;;;;;;;;;29.80;24.00;;;;;46.08;20.34;101598.97;5079767;27;45331;-55
2022/07/23 10:41:48;;;;;;;;;28.00;25.40;;;;;44.52;22.13;101599.41;5079102;27;46326;-56
2022/07/23 10:44:19;;;;;;;;;33.00;26.00;;;;;42.83;23.47;101609.94;5079407;27;45294;-57
2022/07/23 10:49:32;;;;;;;;;34.40;25.20;;;;;39.11;27.52;101625.38;5078112;28;45415;-55
2022/07/23 10:52:18;;;;;;;;;28.60;22.20;;;;;37.76;28.68;101630.69;5079185;27;46950;-56
2022/07/23 10:54:53;;;;;;;;;29.40;26.20;;;;;36.65;30.07;101628.72;5077919;27;45383;-55
2022/07/23 10:57:22;;;;;;;;;26.80;24.00;;;;;35.64;31.38;101624.22;5079154;28;45434;-56
2022/07/23 11:00:11;;;;;;;;;27.80;24.40;;;;;35.00;32.75;101628.16;5079405;27;45364;-55
2022/07/23 11:02:38;;;;;;;;;28.00;24.20;;;;;34.59;32.95;101630.38;5079164;27;45467;-58
2022/07/23 11:05:06;;;;;;;;;25.00;21.80;;;;;34.56;33.65;101636.50;5078977;27;45406;-56
2022/07/23 11:07:33;;;;;;;;;28.00;25.60;;;;;35.37;31.76;101637.78;5079069;28;45442;-55
2022/07/23 11:09:58;;;;;;;;;26.60;22.00;;;;;35.37;31.89;101637.78;5079428;27;45355;-56
2022/07/23 11:12:23;;;;;;;;;29.50;24.75;;;;;35.90;31.20;101644.13;5079041;27;46026;-55